CheckWX is a tool to help pilots better visualize weather data.  It is not intended as a substitute for an official pre-flight weather briefing.

12:46:19 UTC

EGUN METAR
RAF Mildenhall Airport
Mildenhall, United Kingdom
Current

50 mins ago

EGUN 181156Z AUTO 21013KT 9999 SCT065 11/11 A2992 RMK AO2 RAB04E44 SLP135 P0000 60000 T01050105 10114 20070 57010 .
Observed
Feb-18 @ 11:56 UTC
Wind
  • 210° at 13 KTS
Visibility
10,000+ meters
Flight Rules
VFR
Cloud Levels
  • Scattered at 6,500' AGL
Temperature
11°C / 52°F
Dewpoint
11°C / 52°F
Humidity
100%
Altimeter
29.92" Hg
Pressure
1013.5 hPa
Current Rain
0.01"
Previous

1 hour ago

EGUN 181144Z AUTO 21010KT 9999 FEW070 FEW180 11/11 A2992 RMK AO2 RAB04E44 SLP135 $
Observed
Feb-18 @ 11:44 UTC
Wind
  • 210° at 10 KTS
Visibility
10,000+ meters
Flight Rules
VFR
Cloud Levels
  • Few at 7,000' AGL
  • Few at 18,000' AGL
Temperature
11°C / 52°F
Dewpoint
11°C / 52°F
Humidity
100%
Altimeter
29.92" Hg
Pressure
1013.5 hPa
Previous

2 hours ago

EGUN 181104Z AUTO 21012G20KT 9999 -RA FEW065 FEW170 SCT200 11/11 A2993 RMK AO2 RAB04 SLP139 $
Observed
Feb-18 @ 11:04 UTC
Wind
  • 210° at 12 KTS
  • Gusting to 20 KTS
Visibility
10,000+ meters
Flight Rules
VFR
Conditions
Light Rain
Cloud Levels
  • Few at 6,500' AGL
  • Few at 17,000' AGL
  • Scattered at 20,000' AGL
Temperature
11°C / 52°F
Dewpoint
11°C / 52°F
Humidity
100%
Altimeter
29.93" Hg
Pressure
1013.9 hPa